createdAt,value
2024-01-20T00:02:09.399Z,8.60
2024-01-20T00:04:38.758Z,8.60
2024-01-20T00:07:08.280Z,8.60
2024-01-20T00:09:46.226Z,8.60
2024-01-20T00:12:21.512Z,8.60
2024-01-20T00:14:51.108Z,8.70
2024-01-20T00:17:24.645Z,8.70
2024-01-20T00:19:57.195Z,8.70
2024-01-20T00:22:26.795Z,8.70
2024-01-20T00:25:00.160Z,8.70
2024-01-20T00:27:32.899Z,8.70
2024-01-20T00:30:03.676Z,8.70
2024-01-20T00:32:33.728Z,8.70
2024-01-20T00:35:07.728Z,8.70
2024-01-20T00:37:40.243Z,8.70
2024-01-20T00:40:10.581Z,8.80
2024-01-20T00:42:41.293Z,8.80
2024-01-20T00:45:11.331Z,8.80
2024-01-20T00:47:40.733Z,8.80
2024-01-20T00:50:11.294Z,8.80
2024-01-20T00:52:40.634Z,8.80
2024-01-20T00:55:11.619Z,8.80
2024-01-20T00:57:42.542Z,8.80
2024-01-20T01:00:12.611Z,8.80
2024-01-20T01:02:43.075Z,8.80
2024-01-20T01:05:12.758Z,8.80
2024-01-20T01:07:42.253Z,8.90
2024-01-20T01:10:12.069Z,8.90
2024-01-20T01:12:42.967Z,8.90
2024-01-20T01:15:12.531Z,8.90
2024-01-20T01:17:41.965Z,8.90
2024-01-20T01:20:12.312Z,8.90
2024-01-20T01:22:41.783Z,9.00
2024-01-20T01:25:14.038Z,9.00
2024-01-20T01:27:44.895Z,9.00
2024-01-20T01:30:14.395Z,9.00
2024-01-20T01:32:43.854Z,9.10
2024-01-20T01:35:13.523Z,9.10
2024-01-20T01:37:42.901Z,9.10
2024-01-20T01:40:14.241Z,9.00
2024-01-20T01:42:45.039Z,9.10
2024-01-20T01:45:14.443Z,9.10
2024-01-20T01:47:43.908Z,9.10
2024-01-20T01:50:14.217Z,9.10
2024-01-20T01:52:44.221Z,9.10
2024-01-20T01:55:13.691Z,9.10
2024-01-20T01:57:45.636Z,9.10
2024-01-20T02:00:15.547Z,9.10
2024-01-20T02:02:45.004Z,9.10
2024-01-20T02:05:14.488Z,9.20
2024-01-20T02:07:45.905Z,9.20
2024-01-20T02:10:18.073Z,9.20
2024-01-20T02:12:49.475Z,9.20
2024-01-20T02:15:19.277Z,9.20
2024-01-20T02:17:53.230Z,9.20
2024-01-20T02:20:23.416Z,9.20
2024-01-20T02:22:54.153Z,9.20
2024-01-20T02:25:23.438Z,9.30
2024-01-20T02:27:52.989Z,9.30
2024-01-20T02:30:22.651Z,9.30
2024-01-20T02:32:52.214Z,9.30
2024-01-20T02:35:21.718Z,9.30
2024-01-20T02:37:51.030Z,9.30
2024-01-20T02:40:22.064Z,9.30
2024-01-20T02:42:51.372Z,9.30
2024-01-20T02:45:20.839Z,9.30
2024-01-20T02:47:51.742Z,9.30
2024-01-20T02:50:21.306Z,9.30
2024-01-20T02:52:50.640Z,9.30
2024-01-20T02:55:21.342Z,9.30
2024-01-20T02:57:50.758Z,9.30
2024-01-20T03:00:20.339Z,9.30
2024-01-20T03:02:49.919Z,9.30
2024-01-20T03:05:19.374Z,9.30
2024-01-20T03:07:48.796Z,9.20
2024-01-20T03:10:18.309Z,9.20
2024-01-20T03:12:49.153Z,9.20
2024-01-20T03:15:18.697Z,9.10
2024-01-20T03:17:48.083Z,9.10
2024-01-20T03:20:17.544Z,9.10
2024-01-20T03:22:46.844Z,9.10
2024-01-20T03:25:16.283Z,9.10
2024-01-20T03:27:45.672Z,9.10
2024-01-20T03:30:17.161Z,9.10
2024-01-20T03:32:46.760Z,9.00
2024-01-20T03:35:16.299Z,9.00
2024-01-20T03:37:45.753Z,9.00
2024-01-20T03:40:15.561Z,9.00
2024-01-20T03:42:44.910Z,9.00
2024-01-20T03:45:15.592Z,9.00
2024-01-20T03:47:44.928Z,9.00
2024-01-20T03:50:14.403Z,9.00
2024-01-20T03:52:44.590Z,9.00
2024-01-20T03:55:15.052Z,9.00
2024-01-20T03:57:44.399Z,9.00
2024-01-20T04:00:16.171Z,9.10
2024-01-20T04:02:45.722Z,9.10
2024-01-20T04:05:15.135Z,9.10
2024-01-20T04:07:44.976Z,9.20
2024-01-20T04:10:15.673Z,9.20
2024-01-20T04:12:46.166Z,9.20
2024-01-20T04:15:17.147Z,9.20
2024-01-20T04:17:46.792Z,9.20
2024-01-20T04:20:16.302Z,9.20
2024-01-20T04:22:45.702Z,9.20
2024-01-20T04:25:15.678Z,9.20
2024-01-20T04:27:45.794Z,9.20
2024-01-20T04:30:17.404Z,9.20
2024-01-20T04:32:46.814Z,9.10
2024-01-20T04:35:16.241Z,9.10
2024-01-20T04:37:45.661Z,9.10
2024-01-20T04:40:15.124Z,9.00
2024-01-20T04:42:44.465Z,9.00
2024-01-20T04:45:15.062Z,9.00
2024-01-20T04:47:45.925Z,8.90
2024-01-20T04:50:18.367Z,8.90
2024-01-20T04:52:47.788Z,8.90
2024-01-20T04:55:17.142Z,8.80
2024-01-20T04:57:46.572Z,8.80
2024-01-20T05:00:17.060Z,8.80
2024-01-20T05:02:48.017Z,8.70
2024-01-20T05:05:17.507Z,8.70
2024-01-20T05:07:46.826Z,8.70
2024-01-20T05:10:16.366Z,8.70
2024-01-20T05:12:45.796Z,8.70
2024-01-20T05:15:15.188Z,8.60
2024-01-20T05:17:44.701Z,8.60
2024-01-20T05:20:17.015Z,8.60
2024-01-20T05:22:46.336Z,8.60
2024-01-20T05:25:15.710Z,8.60
2024-01-20T05:27:45.062Z,8.60
2024-01-20T05:30:14.908Z,8.60
2024-01-20T05:32:45.827Z,8.50
2024-01-20T05:35:17.534Z,8.50
2024-01-20T05:37:46.840Z,8.50
2024-01-20T05:40:16.170Z,8.50
2024-01-20T05:42:45.536Z,8.50
2024-01-20T05:45:16.273Z,8.50
2024-01-20T05:47:45.726Z,8.50
2024-01-20T05:50:16.526Z,8.50
2024-01-20T05:52:45.947Z,8.50
2024-01-20T05:55:15.444Z,8.40
2024-01-20T05:57:44.939Z,8.40
2024-01-20T06:00:15.477Z,8.40
2024-01-20T06:02:44.894Z,8.50
2024-01-20T06:05:14.379Z,8.50
2024-01-20T06:07:45.098Z,8.50
2024-01-20T06:10:14.398Z,8.50
2024-01-20T06:12:43.715Z,8.50
2024-01-20T06:15:13.295Z,8.60
2024-01-20T06:17:42.686Z,8.60
2024-01-20T06:20:12.645Z,8.60
2024-01-20T06:22:41.965Z,8.60
2024-01-20T06:25:14.390Z,8.60
2024-01-20T06:27:43.699Z,8.60
2024-01-20T06:30:14.342Z,8.70
2024-01-20T06:32:43.739Z,8.70
2024-01-20T06:35:13.247Z,8.70
2024-01-20T06:37:42.575Z,8.70
2024-01-20T06:40:13.843Z,8.80
2024-01-20T06:42:43.002Z,8.80
2024-01-20T06:45:12.425Z,8.80
2024-01-20T06:47:41.736Z,8.80
2024-01-20T06:50:14.450Z,8.90
2024-01-20T06:52:43.848Z,8.90
2024-01-20T06:55:14.539Z,8.90
2024-01-20T06:57:43.861Z,8.90
2024-01-20T07:00:15.133Z,8.90
2024-01-20T07:02:44.513Z,9.00
2024-01-20T07:05:13.897Z,9.00
2024-01-20T07:07:43.713Z,9.00
2024-01-20T07:10:16.300Z,9.00
2024-01-20T07:12:45.650Z,9.00
2024-01-20T07:15:15.391Z,9.00
2024-01-20T07:17:44.855Z,9.00
2024-01-20T07:20:15.485Z,9.10
2024-01-20T07:22:45.406Z,9.10
2024-01-20T07:25:16.190Z,9.10
2024-01-20T07:27:45.645Z,9.10
2024-01-20T07:30:15.413Z,9.10
2024-01-20T07:32:44.848Z,9.10
2024-01-20T07:35:14.205Z,9.20
2024-01-20T07:37:43.957Z,9.20
2024-01-20T07:40:13.932Z,9.20
2024-01-20T07:42:45.941Z,9.20
2024-01-20T07:45:15.369Z,9.20
2024-01-20T07:47:44.742Z,9.30
2024-01-20T07:50:14.214Z,9.30
2024-01-20T07:52:43.604Z,9.30
2024-01-20T07:55:12.941Z,9.30
2024-01-20T07:57:42.663Z,9.30
2024-01-20T08:00:14.399Z,9.30
2024-01-20T08:02:43.775Z,9.40
2024-01-20T08:05:13.131Z,9.40
2024-01-20T08:07:42.504Z,9.40
2024-01-20T08:10:12.917Z,9.40
2024-01-20T08:12:42.789Z,9.40
2024-01-20T08:15:13.649Z,9.40
2024-01-20T08:17:44.366Z,9.40
2024-01-20T08:20:14.254Z,9.40
2024-01-20T08:22:43.558Z,9.40
2024-01-20T08:25:14.355Z,9.40
2024-01-20T08:27:43.749Z,9.40
2024-01-20T08:30:15.556Z,9.40
2024-01-20T08:32:45.087Z,9.40
2024-01-20T08:35:14.656Z,9.40
2024-01-20T08:37:43.905Z,9.40
2024-01-20T08:40:13.649Z,9.40
2024-01-20T08:42:42.976Z,9.40
2024-01-20T08:45:14.315Z,9.40
2024-01-20T08:47:43.498Z,9.40
2024-01-20T08:50:13.040Z,9.40
2024-01-20T08:52:42.457Z,9.40
2024-01-20T08:55:11.960Z,9.40
2024-01-20T08:57:41.286Z,9.40
2024-01-20T09:00:14.061Z,9.40
2024-01-20T09:02:45.020Z,9.40
2024-01-20T09:05:15.260Z,9.40
2024-01-20T09:07:44.588Z,9.40
2024-01-20T09:10:14.596Z,9.40
2024-01-20T09:12:44.060Z,9.40
2024-01-20T09:15:14.334Z,9.50
2024-01-20T09:17:45.246Z,9.50
2024-01-20T09:20:14.837Z,9.50
2024-01-20T09:22:44.499Z,9.50
2024-01-20T09:25:13.834Z,9.50
2024-01-20T09:27:43.153Z,9.50
2024-01-20T09:30:13.356Z,9.50
2024-01-20T09:32:42.726Z,9.60
2024-01-20T09:35:13.490Z,9.60
2024-01-20T09:37:42.797Z,9.70
2024-01-20T09:40:13.325Z,9.70
2024-01-20T09:42:43.290Z,9.70
2024-01-20T09:45:13.538Z,9.70
2024-01-20T09:47:43.489Z,9.70
2024-01-20T09:50:14.479Z,9.70
2024-01-20T09:52:56.493Z,9.80
2024-01-20T09:55:27.565Z,9.80
2024-01-20T09:57:57.896Z,9.80
2024-01-20T10:00:27.619Z,9.80
2024-01-20T10:02:57.689Z,9.80
2024-01-20T10:05:33.773Z,9.80
2024-01-20T10:08:03.368Z,9.90
2024-01-20T10:10:33.092Z,9.90
2024-01-20T10:13:03.700Z,10.00
2024-01-20T10:15:35.365Z,10.00
2024-01-20T10:18:09.805Z,10.00
2024-01-20T10:20:41.030Z,10.00
2024-01-20T10:23:10.440Z,10.10
2024-01-20T10:25:39.833Z,10.20
2024-01-20T10:28:09.657Z,10.20
2024-01-20T10:30:40.627Z,10.30
2024-01-20T10:33:11.529Z,10.30
2024-01-20T10:35:42.465Z,10.40
2024-01-20T10:38:16.110Z,10.40
2024-01-20T10:40:46.815Z,10.40
2024-01-20T10:43:17.840Z,10.50
2024-01-20T10:45:49.012Z,10.50
2024-01-20T10:48:20.139Z,10.50
2024-01-20T10:50:54.810Z,10.60
2024-01-20T10:53:24.664Z,10.60
2024-01-20T10:55:54.328Z,10.60
2024-01-20T10:58:29.971Z,10.50
2024-01-20T11:00:59.447Z,10.60
2024-01-20T11:03:29.393Z,10.50
2024-01-20T11:06:00.402Z,10.60
2024-01-20T11:08:29.771Z,10.60
2024-01-20T11:10:59.241Z,10.60
2024-01-20T11:13:29.405Z,10.60
2024-01-20T11:15:59.847Z,10.70
2024-01-20T11:18:29.396Z,10.70
2024-01-20T11:21:04.472Z,10.80
2024-01-20T11:23:33.840Z,10.80
2024-01-20T11:26:13.287Z,10.80
2024-01-20T11:28:45.462Z,10.80
2024-01-20T11:31:21.451Z,10.80
2024-01-20T11:33:50.877Z,10.90
2024-01-20T11:36:22.102Z,10.90
2024-01-20T11:38:52.526Z,11.00
2024-01-20T11:41:21.850Z,11.00
2024-01-20T11:43:51.206Z,11.00
2024-01-20T11:46:21.194Z,11.00
2024-01-20T11:48:51.092Z,11.00
2024-01-20T11:51:23.073Z,11.00
2024-01-20T11:53:52.581Z,11.00
2024-01-20T11:56:21.911Z,11.00
2024-01-20T11:58:51.403Z,11.00
2024-01-20T12:01:20.992Z,11.00
2024-01-20T12:03:50.502Z,11.00
2024-01-20T12:06:21.416Z,11.00
2024-01-20T12:08:50.873Z,11.00
2024-01-20T12:11:21.157Z,11.00
2024-01-20T12:13:50.974Z,11.10
2024-01-20T12:16:20.617Z,11.10
2024-01-20T12:18:50.079Z,11.10
2024-01-20T12:21:19.688Z,11.10
2024-01-20T12:23:50.368Z,11.10
2024-01-20T12:26:19.850Z,11.20
2024-01-20T12:28:51.854Z,11.20
2024-01-20T12:31:22.996Z,11.20
2024-01-20T12:33:52.594Z,11.30
2024-01-20T12:36:21.839Z,11.30
2024-01-20T12:38:52.574Z,11.30
2024-01-20T12:41:22.029Z,11.30
2024-01-20T12:43:51.495Z,11.30
2024-01-20T12:46:20.969Z,11.40
2024-01-20T12:48:50.374Z,11.30
2024-01-20T12:51:19.818Z,11.30
2024-01-20T12:53:49.311Z,11.30
2024-01-20T12:56:20.127Z,11.30
2024-01-20T12:58:49.498Z,11.30
2024-01-20T13:01:19.759Z,11.20
2024-01-20T13:03:49.718Z,11.20
2024-01-20T13:06:19.268Z,11.20
2024-01-20T13:08:48.835Z,11.20
2024-01-20T13:11:19.536Z,11.10
2024-01-20T13:13:49.939Z,11.10
2024-01-20T13:16:19.345Z,11.10
2024-01-20T13:18:48.947Z,11.10
2024-01-20T13:21:18.903Z,11.10
2024-01-20T13:23:48.619Z,11.00
2024-01-20T13:26:19.439Z,11.00
2024-01-20T13:28:49.653Z,11.00
2024-01-20T13:31:19.382Z,11.00
2024-01-20T13:33:49.119Z,11.00
2024-01-20T13:36:18.579Z,11.00
2024-01-20T13:38:47.884Z,11.00
2024-01-20T13:41:17.297Z,11.00
2024-01-20T13:43:47.972Z,11.00
2024-01-20T13:46:17.261Z,11.00
2024-01-20T13:48:49.292Z,11.00
2024-01-20T13:51:19.132Z,11.00
2024-01-20T13:53:48.688Z,11.00
2024-01-20T13:56:18.020Z,11.00
2024-01-20T13:58:48.755Z,11.00
2024-01-20T14:01:22.737Z,10.90
2024-01-20T14:03:52.996Z,11.00
2024-01-20T14:06:22.675Z,11.00
2024-01-20T14:08:54.885Z,11.00
2024-01-20T14:11:24.950Z,11.00
2024-01-20T14:13:55.813Z,11.00
2024-01-20T14:16:26.786Z,10.90
2024-01-20T14:18:56.881Z,11.00
2024-01-20T14:21:26.526Z,11.00
2024-01-20T14:23:55.865Z,11.00
2024-01-20T14:26:28.229Z,11.00
2024-01-20T14:28:59.112Z,11.00
2024-01-20T14:31:28.506Z,11.00
2024-01-20T14:33:58.246Z,11.00
2024-01-20T14:36:27.792Z,11.00
2024-01-20T14:38:57.198Z,11.10
2024-01-20T14:41:26.538Z,11.00
2024-01-20T14:43:55.809Z,11.10
2024-01-20T14:46:26.822Z,11.10
2024-01-20T14:48:56.229Z,11.10
2024-01-20T14:51:25.713Z,11.10
2024-01-20T14:53:56.174Z,11.10
2024-01-20T14:56:30.149Z,11.10
2024-01-20T14:59:02.881Z,11.20
2024-01-20T15:01:34.504Z,11.20
2024-01-20T15:04:04.871Z,11.20
2024-01-20T15:06:34.793Z,11.20
2024-01-20T15:09:04.976Z,11.20
2024-01-20T15:11:34.522Z,11.20
2024-01-20T15:14:08.505Z,11.20
2024-01-20T15:16:39.232Z,11.20
2024-01-20T15:19:08.828Z,11.20
2024-01-20T15:21:38.279Z,11.20
2024-01-20T15:24:08.081Z,11.20
2024-01-20T15:26:37.877Z,11.20
2024-01-20T15:29:07.238Z,11.10
2024-01-20T15:31:36.608Z,11.10
2024-01-20T15:34:07.482Z,11.10
2024-01-20T15:36:36.979Z,11.10
2024-01-20T15:39:07.901Z,11.10
2024-01-20T15:41:38.863Z,11.10
2024-01-20T15:44:09.210Z,11.10
2024-01-20T15:46:39.653Z,11.10
2024-01-20T15:49:11.568Z,11.10
2024-01-20T15:51:42.434Z,11.10
2024-01-20T15:54:11.925Z,11.10
2024-01-20T15:56:44.776Z,11.00
2024-01-20T15:59:14.185Z,11.00
2024-01-20T16:01:43.730Z,11.00
2024-01-20T16:04:14.742Z,11.00
2024-01-20T16:06:44.468Z,11.00
2024-01-20T16:09:15.800Z,10.90
2024-01-20T16:11:51.074Z,10.90
2024-01-20T16:14:24.265Z,10.90
2024-01-20T16:16:53.627Z,10.90
2024-01-20T16:19:25.461Z,10.80
2024-01-20T16:21:55.133Z,10.80
2024-01-20T16:24:24.654Z,10.80
2024-01-20T16:26:53.913Z,10.70
2024-01-20T16:29:23.685Z,10.70
2024-01-20T16:31:53.266Z,10.70
2024-01-20T16:34:24.369Z,10.70
2024-01-20T16:36:54.098Z,10.70
2024-01-20T16:39:23.457Z,10.70
2024-01-20T16:41:54.652Z,10.70
2024-01-20T16:44:23.829Z,10.70
2024-01-20T16:46:53.473Z,10.70
2024-01-20T16:49:25.961Z,10.70
2024-01-20T16:51:58.587Z,10.60
2024-01-20T16:54:27.995Z,10.60
2024-01-20T16:56:57.370Z,10.60
2024-01-20T16:59:26.743Z,10.60
2024-01-20T17:01:56.128Z,10.60
2024-01-20T17:04:27.301Z,10.60
2024-01-20T17:06:56.872Z,10.60
2024-01-20T17:09:26.269Z,10.60
2024-01-20T17:11:55.767Z,10.60
2024-01-20T17:14:26.255Z,10.60
2024-01-20T17:16:55.596Z,10.60
2024-01-20T17:19:32.148Z,10.60
2024-01-20T17:22:01.789Z,10.60
2024-01-20T17:24:34.777Z,10.60
2024-01-20T17:27:04.445Z,10.60
2024-01-20T17:29:34.082Z,10.60
2024-01-20T17:32:04.482Z,10.60
2024-01-20T17:34:36.199Z,10.60
2024-01-20T17:37:06.306Z,10.50
2024-01-20T17:39:39.011Z,10.50
2024-01-20T17:42:08.672Z,10.50
2024-01-20T17:44:38.342Z,10.50
2024-01-20T17:47:07.989Z,10.40
2024-01-20T17:49:39.380Z,10.40
2024-01-20T17:52:08.812Z,10.40
2024-01-20T17:54:38.210Z,10.40
2024-01-20T17:57:07.697Z,10.30
2024-01-20T17:59:40.178Z,10.40
2024-01-20T18:02:09.715Z,10.30
2024-01-20T18:04:41.166Z,10.40
2024-01-20T18:07:11.360Z,10.40
2024-01-20T18:09:42.892Z,10.40
2024-01-20T18:12:12.278Z,10.40
2024-01-20T18:14:42.181Z,10.30
2024-01-20T18:17:11.774Z,10.30
2024-01-20T18:19:42.476Z,10.30
2024-01-20T18:22:11.844Z,10.30
2024-01-20T18:24:41.738Z,10.20
2024-01-20T18:27:11.168Z,10.20
2024-01-20T18:29:42.622Z,10.20
2024-01-20T18:32:11.717Z,10.20
2024-01-20T18:34:46.791Z,10.20
2024-01-20T18:37:18.860Z,10.20
2024-01-20T18:39:48.869Z,10.10
2024-01-20T18:42:21.321Z,10.10
2024-01-20T18:44:50.689Z,10.10
2024-01-20T18:47:22.088Z,10.10
2024-01-20T18:49:54.245Z,10.10
2024-01-20T18:52:27.437Z,10.10
2024-01-20T18:55:03.671Z,10.00
2024-01-20T18:57:36.754Z,10.00
2024-01-20T19:00:12.585Z,10.00
2024-01-20T19:02:41.964Z,10.00
2024-01-20T19:05:15.152Z,10.00
2024-01-20T19:07:44.623Z,9.90
2024-01-20T19:10:13.931Z,9.90
2024-01-20T19:12:44.105Z,9.90
2024-01-20T19:15:14.364Z,9.90
2024-01-20T19:17:44.362Z,9.90
2024-01-20T19:20:15.385Z,9.90
2024-01-20T19:22:44.944Z,9.90
2024-01-20T19:25:14.276Z,9.90
2024-01-20T19:27:43.654Z,9.90
2024-01-20T19:30:13.745Z,9.90
2024-01-20T19:32:43.147Z,9.90
2024-01-20T19:35:12.508Z,9.90
2024-01-20T19:37:44.301Z,9.90
2024-01-20T19:40:16.592Z,9.90
2024-01-20T19:42:46.137Z,9.90
2024-01-20T19:45:15.673Z,9.90
2024-01-20T19:47:44.952Z,9.90
2024-01-20T19:50:14.404Z,9.90
2024-01-20T19:52:45.097Z,9.90
2024-01-20T19:55:14.642Z,9.90
2024-01-20T19:57:44.196Z,9.90
2024-01-20T20:00:17.104Z,9.90
2024-01-20T20:02:46.803Z,9.90
2024-01-20T20:05:16.375Z,9.90
2024-01-20T20:07:47.135Z,9.90
2024-01-20T20:10:16.632Z,9.90
2024-01-20T20:12:45.968Z,9.90
2024-01-20T20:15:15.558Z,10.00
2024-01-20T20:17:45.468Z,10.00
2024-01-20T20:20:18.101Z,10.00
2024-01-20T20:22:49.400Z,10.00
2024-01-20T20:25:18.499Z,10.00
2024-01-20T20:27:47.778Z,10.00
2024-01-20T20:30:17.542Z,10.00
2024-01-20T20:32:47.387Z,10.00
2024-01-20T20:35:17.784Z,10.00
2024-01-20T20:37:48.476Z,10.00
2024-01-20T20:40:17.906Z,10.00
2024-01-20T20:42:47.340Z,9.90
2024-01-20T20:45:19.968Z,9.90
2024-01-20T20:47:49.277Z,9.90
2024-01-20T20:50:19.841Z,9.90
2024-01-20T20:52:50.623Z,10.00
2024-01-20T20:55:22.126Z,10.00
2024-01-20T20:57:56.084Z,9.90
2024-01-20T21:00:25.461Z,10.00
2024-01-20T21:02:54.742Z,10.00
2024-01-20T21:05:25.966Z,10.00
2024-01-20T21:07:56.666Z,10.00
2024-01-20T21:10:26.143Z,10.00
2024-01-20T21:12:55.649Z,10.00
2024-01-20T21:15:25.068Z,10.00
2024-01-20T21:17:54.545Z,10.10
2024-01-20T21:20:23.997Z,10.10
2024-01-20T21:22:53.373Z,10.10
2024-01-20T21:25:25.969Z,10.10
2024-01-20T21:27:55.285Z,10.20
2024-01-20T21:30:28.542Z,10.20
2024-01-20T21:32:58.046Z,10.20
2024-01-20T21:35:27.437Z,10.30
2024-01-20T21:37:56.757Z,10.30
2024-01-20T21:40:27.614Z,10.30
2024-01-20T21:42:57.042Z,10.40
2024-01-20T21:45:26.502Z,10.40
2024-01-20T21:47:55.852Z,10.40
2024-01-20T21:50:25.320Z,10.50
2024-01-20T21:52:54.621Z,10.50
2024-01-20T21:55:23.970Z,10.50
2024-01-20T21:57:58.546Z,10.60
2024-01-20T22:00:29.307Z,10.60
2024-01-20T22:02:58.801Z,10.50
2024-01-20T22:05:28.622Z,10.60
2024-01-20T22:08:00.538Z,10.60
2024-01-20T22:10:30.882Z,10.60
2024-01-20T22:13:01.834Z,10.60
2024-01-20T22:15:31.588Z,10.60
2024-01-20T22:18:01.147Z,10.60
2024-01-20T22:20:30.529Z,10.60
2024-01-20T22:22:59.834Z,10.60
2024-01-20T22:25:29.119Z,10.60
2024-01-20T22:27:58.501Z,10.60
2024-01-20T22:30:29.361Z,10.70
2024-01-20T22:32:59.355Z,10.70
2024-01-20T22:35:31.000Z,10.70
2024-01-20T22:38:00.740Z,10.70
2024-01-20T22:40:31.389Z,10.70
2024-01-20T22:43:01.896Z,10.70
2024-01-20T22:45:32.692Z,10.70
2024-01-20T22:48:02.081Z,10.70
2024-01-20T22:50:32.086Z,10.70
2024-01-20T22:53:01.567Z,10.70
2024-01-20T22:55:31.033Z,10.70
2024-01-20T22:58:00.344Z,10.80
2024-01-20T23:00:31.748Z,10.80
2024-01-20T23:03:01.081Z,10.80
2024-01-20T23:05:30.505Z,10.80
2024-01-20T23:07:59.845Z,10.80
2024-01-20T23:10:29.211Z,10.70
2024-01-20T23:12:58.622Z,10.70
2024-01-20T23:15:27.907Z,10.70
2024-01-20T23:17:58.728Z,10.60
2024-01-20T23:20:28.095Z,10.60
2024-01-20T23:22:57.425Z,10.60
2024-01-20T23:25:28.810Z,10.60
2024-01-20T23:27:59.761Z,10.60
2024-01-20T23:30:31.806Z,10.60
2024-01-20T23:33:03.364Z,10.60
2024-01-20T23:35:32.824Z,10.60
2024-01-20T23:38:02.086Z,10.60
2024-01-20T23:40:31.526Z,10.60
2024-01-20T23:43:00.790Z,10.60
2024-01-20T23:45:30.248Z,10.50
2024-01-20T23:47:59.628Z,10.50
2024-01-20T23:50:30.370Z,10.50
2024-01-20T23:52:59.761Z,10.50
2024-01-20T23:55:29.064Z,10.50
2024-01-20T23:57:58.409Z,10.40
